KSEM/SEM METAR and TAF weather

Enter ICAO airport designator
Station Type Date Time Source
KSEM METAR 2019/04/25 07:55 UTC NOAA

KSEM 250755Z AUTO 17003KT 10SM 17/16 A2992 RMK AO2


Station Type Date Time Source
KSEM Decoded METAR 2019/04/25 07:55 UTC NOAA

Craig Field / Selma, AL, United States (KSEM) 32-21N 086-59W
Apr 25, 2019 - 03:55 AM EDT / 2019.04.25 0755 UTC
Wind: from the S (170 degrees) at 3 MPH (3 KT):0
Visibility: 10 mile(s):0
Temperature: 62 F (17 C)
Dew Point: 60 F (16 C)
Relative Humidity: 93%
Pressure (altimeter): 29.92 in. Hg (1013 hPa)
ob: KSEM 250755Z AUTO 17003KT 10SM 17/16 A2992 RMK AO2
cycle: 8

Station Type Date Time Source
KSEM TAF UTC NOAA

Error!

Example: see airport list